Time;durP1;ratioP1;P1;durP2;ratioP2;P2;SDS_P1;SDS_P2;PMS_P1;PMS_P2;Temp;Humidity;BMP_temperature;BMP_pressure;BME280_temperature;BME280_humidity;BME280_pressure;Samples;Min_cycle;Max_cycle;Signal;HPM_P1;HPM_P2
2021/12/24 00:01:00;;;;;;;6.65;3.40;;;;;;;6.56;74.14;96024.59;5095953;28;20049;-77
2021/12/24 00:03:28;;;;;;;4.07;3.15;;;;;;;6.60;73.87;96014.69;5096167;28;20095;-76
2021/12/24 00:05:56;;;;;;;8.10;4.82;;;;;;;6.63;73.43;96016.97;5095882;28;20467;-78
2021/12/24 00:08:23;;;;;;;4.28;3.10;;;;;;;6.61;73.64;95995.59;5095400;28;20064;-77
2021/12/24 00:10:58;;;;;;;6.80;2.97;;;;;;;6.66;74.23;95988.09;5094141;28;20047;-77
2021/12/24 00:13:29;;;;;;;3.20;2.72;;;;;;;6.70;73.79;95988.56;5093646;28;20048;-78
2021/12/24 00:16:05;;;;;;;5.10;2.83;;;;;;;6.71;73.81;96000.53;5093584;28;20426;-78
2021/12/24 00:18:40;;;;;;;4.72;3.30;;;;;;;6.76;74.06;95987.88;5093931;28;20047;-76
2021/12/24 00:37:48;;;;;;;4.70;3.45;;;;;;;7.00;73.34;95979.91;5072976;28;20048;-77
2021/12/24 00:40:19;;;;;;;7.28;3.95;;;;;;;7.04;73.77;95982.97;5093762;28;20044;-78
2021/12/24 00:42:51;;;;;;;4.93;2.90;;;;;;;7.06;73.06;95980.97;5096697;28;20052;-80
2021/12/24 00:45:22;;;;;;;4.32;3.40;;;;;;;7.11;73.69;95980.50;5096606;28;20044;-78
2021/12/24 00:47:51;;;;;;;3.50;3.00;;;;;;;7.14;73.56;95977.53;5096047;28;20054;-77
2021/12/24 00:50:23;;;;;;;4.57;2.75;;;;;;;7.16;73.34;95965.19;5092586;28;20052;-78
2021/12/24 00:52:56;;;;;;;4.75;2.85;;;;;;;7.17;73.02;95959.00;5082908;28;20048;-78
2021/12/24 00:55:25;;;;;;;5.18;3.50;;;;;;;7.20;73.25;95961.28;5082212;28;20525;-79
2021/12/24 00:57:55;;;;;;;4.70;2.60;;;;;;;7.20;72.78;95963.88;5079389;28;20075;-79
2021/12/24 01:03:07;;;;;;;7.15;3.50;;;;;;;7.14;73.05;95955.00;5905994;22;20262;-77
2021/12/24 01:05:37;;;;;;;4.18;3.05;;;;;;;7.15;73.11;95955.78;4997392;28;20057;-77
2021/12/24 01:08:08;;;;;;;6.63;2.78;;;;;;;7.18;73.02;95951.06;4997964;28;20447;-78
2021/12/24 01:25:34;;;;;;;4.40;2.67;;;;;;;7.16;73.11;95937.47;4973322;28;20058;-77
2021/12/24 01:28:27;;;;;;;5.78;3.13;;;;;;;7.20;73.00;95945.72;4976727;28;20497;-77
2021/12/24 01:42:51;;;;;;;4.85;3.05;;;;;;;7.23;72.47;95935.75;5593441;23;20061;-77
2021/12/24 01:45:22;;;;;;;3.50;3.00;;;;;;;7.24;72.74;95946.97;4976815;28;20408;-78
2021/12/24 01:47:53;;;;;;;4.40;3.15;;;;;;;7.26;72.29;95939.81;4977338;28;20046;-77
2021/12/24 01:54:10;;;;;;;4.43;2.85;;;;;;;7.28;72.44;95937.84;4957856;29;20037;-77
2021/12/24 01:56:39;;;;;;;3.72;2.83;;;;;;;7.26;72.38;95937.22;4957083;29;20055;-77
2021/12/24 01:59:09;;;;;;;3.15;2.70;;;;;;;7.27;72.38;95928.44;4957198;29;20050;-77
2021/12/24 02:01:37;;;;;;;4.13;2.88;;;;;;;7.29;72.39;95923.88;4956453;28;20055;-79
2021/12/24 02:04:05;;;;;;;3.58;2.47;;;;;;;7.31;72.58;95921.94;4956276;29;20055;-79
2021/12/24 02:06:34;;;;;;;4.55;3.05;;;;;;;7.33;72.44;95924.34;4956809;29;20059;-79
2021/12/24 02:09:02;;;;;;;3.20;2.33;;;;;;;7.32;72.38;95910.56;4956996;29;20113;-79
2021/12/24 02:11:37;;;;;;;3.90;2.50;;;;;;;7.35;72.37;95910.22;4956439;28;20043;-79
2021/12/24 02:14:07;;;;;;;3.35;2.33;;;;;;;7.36;72.21;95911.81;4956371;29;20528;-79
2021/12/24 02:16:50;;;;;;;4.75;2.78;;;;;;;7.33;71.95;95907.00;4956798;29;20054;-79
2021/12/24 02:36:10;;;;;;;2.58;2.33;;;;;;;7.26;72.69;95872.38;5420787;23;20105;-76
2021/12/24 02:38:40;;;;;;;4.85;2.90;;;;;;;7.24;72.60;95866.56;4975459;28;20130;-78
2021/12/24 02:41:09;;;;;;;3.72;3.20;;;;;;;7.24;72.72;95874.34;4959408;28;20563;-79
2021/12/24 02:43:39;;;;;;;3.25;2.65;;;;;;;7.21;72.58;95870.31;4956715;29;20485;-79
2021/12/24 02:46:10;;;;;;;3.75;2.65;;;;;;;7.24;72.75;95874.34;4957056;29;20051;-79
2021/12/24 02:49:01;;;;;;;5.90;2.53;;;;;;;7.29;72.97;95873.81;4956962;29;20074;-79
2021/12/24 02:54:18;;;;;;;3.65;2.78;;;;;;;7.30;72.47;95865.81;4956037;28;20130;-79
2021/12/24 02:56:50;;;;;;;3.17;2.30;;;;;;;7.31;72.97;95851.88;4956252;29;20051;-80
2021/12/24 02:59:25;;;;;;;3.17;2.60;;;;;;;7.38;73.00;95844.97;4955955;28;20047;-79
2021/12/24 03:01:54;;;;;;;2.80;2.25;;;;;;;7.43;72.29;95844.44;4956085;29;20490;-79
2021/12/24 03:04:22;;;;;;;3.95;2.58;;;;;;;7.47;72.38;95845.69;4955785;29;20067;-79
2021/12/24 03:06:52;;;;;;;2.85;2.30;;;;;;;7.47;72.32;95840.50;4955526;29;20501;-79
2021/12/24 03:12:13;;;;;;;3.47;2.50;;;;;;;7.48;72.33;95851.69;5089182;23;20453;-76
2021/12/24 03:14:40;;;;;;;4.88;2.10;;;;;;;7.48;72.26;95857.69;4975297;28;20528;-77
2021/12/24 03:17:12;;;;;;;4.07;2.80;;;;;;;7.46;72.09;95854.47;4975107;28;20421;-78
2021/12/24 03:19:40;;;;;;;4.17;2.53;;;;;;;7.45;72.29;95842.47;4970934;28;20049;-79
2021/12/24 03:22:24;;;;;;;2.78;2.03;;;;;;;7.47;72.46;95837.91;4955418;29;20090;-79
2021/12/24 03:24:51;;;;;;;3.10;2.70;;;;;;;7.53;72.03;95837.19;4955573;29;20502;-79
2021/12/24 03:27:22;;;;;;;3.03;2.30;;;;;;;7.56;71.94;95828.22;4955338;29;20047;-79
2021/12/24 03:29:51;;;;;;;4.80;2.22;;;;;;;7.56;71.85;95818.63;4955258;28;20166;-79
2021/12/24 03:32:22;;;;;;;2.50;2.30;;;;;;;7.58;72.05;95813.28;4955517;29;20047;-79
2021/12/24 03:34:50;;;;;;;2.80;2.20;;;;;;;7.58;72.21;95811.47;4955375;28;20058;-79
2021/12/24 03:37:18;;;;;;;2.30;1.95;;;;;;;7.61;71.73;95805.94;4955298;29;20059;-79
2021/12/24 03:43:18;;;;;;;2.00;1.85;;;;;;;7.69;71.71;95827.56;5137689;23;20058;-79
2021/12/24 03:45:56;;;;;;;2.75;1.98;;;;;;;7.71;71.58;95820.41;4974258;28;20058;-79
2021/12/24 03:48:37;;;;;;;4.47;2.17;;;;;;;7.70;71.55;95814.44;4974274;28;20051;-79
2021/12/24 03:51:22;;;;;;;2.38;2.08;;;;;;;7.73;71.75;95819.25;4958535;28;20055;-79
2021/12/24 03:56:38;;;;;;;2.45;1.90;;;;;;;7.73;71.73;95827.03;4955375;29;20486;-79
2021/12/24 04:01:47;;;;;;;3.53;1.95;;;;;;;7.74;71.79;95823.47;6075157;23;20026;-80
2021/12/24 04:04:15;;;;;;;3.50;2.13;;;;;;;7.72;71.89;95820.25;4973087;28;20141;-78
2021/12/24 04:06:44;;;;;;;2.60;2.40;;;;;;;7.72;71.84;95827.19;4973941;28;20149;-79
2021/12/24 04:12:28;;;;;;;2.80;1.95;;;;;;;7.74;72.04;95815.69;5775539;23;20050;-79
2021/12/24 04:14:58;;;;;;;2.58;2.00;;;;;;;7.75;72.11;95819.88;4974260;28;20069;-79
2021/12/24 04:17:26;;;;;;;3.28;2.38;;;;;;;7.76;72.36;95810.28;4974066;28;20564;-79
2021/12/24 04:25:26;;;;;;;2.67;2.13;;;;;;;7.79;72.16;95804.75;4954948;28;20059;-79
2021/12/24 04:27:58;;;;;;;2.22;1.83;;;;;;;7.80;72.20;95803.72;4959017;29;20163;-79
2021/12/24 04:30:33;;;;;;;2.25;1.90;;;;;;;7.81;72.16;95802.75;4959502;28;20409;-79
2021/12/24 04:33:05;;;;;;;3.38;2.30;;;;;;;7.79;72.66;95800.34;4958669;29;20051;-78
2021/12/24 04:35:42;;;;;;;2.55;1.98;;;;;;;7.78;72.41;95806.53;4958401;28;20541;-79
2021/12/24 04:53:08;;;;;;;2.72;2.10;;;;;;;7.74;72.74;95794.09;4901931;29;20139;-79
2021/12/24 05:01:28;;;;;;;2.58;1.98;;;;;;;7.78;72.88;95796.16;4915284;29;20059;-79
2021/12/24 05:04:01;;;;;;;2.20;1.80;;;;;;;7.78;72.67;95793.56;4938444;29;20051;-79
2021/12/24 05:06:34;;;;;;;2.55;2.17;;;;;;;7.78;72.71;95793.56;4938646;29;20055;-79
2021/12/24 05:09:09;;;;;;;2.67;1.92;;;;;;;7.78;72.47;95795.31;4938351;29;20054;-79
2021/12/24 05:12:11;;;;;;;3.35;2.20;;;;;;;7.76;72.79;95792.94;5060900;23;20055;-78
2021/12/24 05:14:39;;;;;;;3.40;2.00;;;;;;;7.77;72.69;95793.72;4977045;28;20051;-78
2021/12/24 05:17:23;;;;;;;1.90;1.80;;;;;;;7.75;72.63;95796.50;4977135;28;20129;-78
2021/12/24 05:22:37;;;;;;;3.45;2.47;;;;;;;7.75;72.53;95791.31;4957358;29;20220;-78
2021/12/24 05:25:06;;;;;;;3.38;2.17;;;;;;;7.74;72.20;95794.91;4957468;29;20055;-78
2021/12/24 05:27:35;;;;;;;4.13;2.58;;;;;;;7.74;72.44;95794.91;4957347;28;20114;-78
2021/12/24 05:30:05;;;;;;;4.20;2.25;;;;;;;7.75;72.64;95790.50;4957918;28;20047;-78
2021/12/24 05:32:33;;;;;;;2.65;2.45;;;;;;;7.74;72.42;95786.28;4957154;28;20070;-78
2021/12/24 05:35:02;;;;;;;7.35;2.75;;;;;;;7.73;72.81;95782.91;4957326;29;20055;-78
2021/12/24 05:37:30;;;;;;;3.22;2.35;;;;;;;7.73;72.67;95790.69;4957052;28;20058;-78
2021/12/24 05:39:58;;;;;;;3.15;1.88;;;;;;;7.76;72.95;95786.91;4956982;28;20062;-78
2021/12/24 05:42:31;;;;;;;2.47;2.10;;;;;;;7.79;72.74;95791.75;4956982;28;20134;-78
2021/12/24 05:45:03;;;;;;;2.17;1.85;;;;;;;7.79;72.61;95792.56;4957134;29;20047;-78
2021/12/24 05:47:33;;;;;;;3.58;2.10;;;;;;;7.78;72.72;95793.56;4957253;29;20051;-78
2021/12/24 05:50:05;;;;;;;3.63;2.10;;;;;;;7.77;72.74;95789.34;4956642;28;20047;-78
2021/12/24 05:52:35;;;;;;;2.83;2.53;;;;;;;7.75;73.04;95783.53;4957119;29;20044;-78
2021/12/24 05:55:05;;;;;;;3.00;2.13;;;;;;;7.73;72.98;95782.91;4956897;28;20047;-78
2021/12/24 05:57:34;;;;;;;2.50;2.00;;;;;;;7.72;72.98;95783.91;4956437;29;20051;-78
2021/12/24 06:00:05;;;;;;;2.88;2.60;;;;;;;7.69;72.83;95786.84;4956598;28;20047;-78
2021/12/24 06:02:35;;;;;;;4.38;2.42;;;;;;;7.70;73.17;95787.69;4956512;28;20177;-78
2021/12/24 06:05:06;;;;;;;3.58;2.45;;;;;;;7.70;73.04;95788.47;4956427;28;20051;-78
2021/12/24 06:07:36;;;;;;;2.33;2.00;;;;;;;7.71;72.89;95790.06;4956262;28;20532;-77
2021/12/24 06:10:05;;;;;;;2.40;2.08;;;;;;;7.74;72.78;95789.72;4956460;28;20098;-78
2021/12/24 06:12:35;;;;;;;5.47;3.17;;;;;;;7.78;72.84;95788.38;4956970;28;20151;-78
2021/12/24 06:15:07;;;;;;;3.30;2.80;;;;;;;7.79;72.72;95784.75;4956889;28;20089;-78
2021/12/24 06:17:37;;;;;;;2.13;1.92;;;;;;;7.82;72.69;95786.97;4955652;28;20075;-77
2021/12/24 06:20:10;;;;;;;4.93;1.98;;;;;;;7.85;72.59;95785.84;4955483;28;20058;-78
2021/12/24 06:22:38;;;;;;;4.15;2.35;;;;;;;7.89;72.53;95796.63;4952924;28;20054;-78
2021/12/24 06:25:06;;;;;;;3.15;2.20;;;;;;;7.91;72.41;95795.47;4956009;28;20051;-79
2021/12/24 06:27:34;;;;;;;3.40;2.17;;;;;;;7.92;72.35;95801.47;4957328;29;20059;-78
2021/12/24 06:30:02;;;;;;;4.05;2.60;;;;;;;7.93;72.19;95803.06;4956905;28;20417;-80
2021/12/24 06:32:32;;;;;;;4.07;2.15;;;;;;;7.92;71.96;95806.66;4957360;28;20079;-79
2021/12/24 06:35:00;;;;;;;6.38;2.95;;;;;;;7.97;72.09;95823.28;4956163;28;20051;-78
2021/12/24 06:37:31;;;;;;;2.45;2.22;;;;;;;7.99;71.96;95818.72;4956126;28;20059;-78
2021/12/24 06:45:54;;;;;;;2.65;2.42;;;;;;;8.00;72.24;95824.72;4914305;29;20047;-79
2021/12/24 06:48:21;;;;;;;2.75;2.20;;;;;;;8.01;72.27;95821.94;4942575;28;20055;-79
2021/12/24 06:50:50;;;;;;;8.45;3.10;;;;;;;8.01;71.94;95808.94;4955633;28;20047;-79
2021/12/24 06:53:19;;;;;;;2.63;2.08;;;;;;;8.02;71.81;95822.75;4961642;28;20054;-80
2021/12/24 06:55:47;;;;;;;5.18;2.50;;;;;;;8.00;72.00;95816.91;4959870;29;20055;-79
2021/12/24 06:58:16;;;;;;;3.17;2.50;;;;;;;7.97;71.69;95815.50;4955496;29;20051;-79
2021/12/24 07:00:44;;;;;;;2.85;2.50;;;;;;;7.93;71.89;95816.06;4955081;28;20147;-77
2021/12/24 07:03:11;;;;;;;5.05;2.58;;;;;;;7.89;72.35;95801.81;4954513;29;20048;-77
2021/12/24 07:05:39;;;;;;;3.60;2.33;;;;;;;7.87;72.05;95798.63;4954423;29;20062;-77
2021/12/24 07:08:07;;;;;;;3.20;2.67;;;;;;;7.85;72.42;95796.22;4954219;29;20051;-76
2021/12/24 07:10:36;;;;;;;2.90;2.60;;;;;;;7.81;72.32;95805.34;4954562;28;20439;-77
2021/12/24 07:13:03;;;;;;;3.05;2.30;;;;;;;7.79;72.40;95799.53;4954529;29;20432;-77
2021/12/24 07:15:31;;;;;;;2.85;2.50;;;;;;;7.77;72.42;95802.31;4954606;29;20074;-76
2021/12/24 07:17:58;;;;;;;2.40;2.03;;;;;;;7.75;72.52;95806.88;4954183;29;20058;-77
2021/12/24 07:20:26;;;;;;;4.25;2.38;;;;;;;7.74;72.68;95807.88;4954476;28;20110;-76
2021/12/24 07:22:54;;;;;;;3.70;3.13;;;;;;;7.74;72.71;95810.47;4954576;29;20047;-75
2021/12/24 07:25:22;;;;;;;4.25;2.70;;;;;;;7.73;72.82;95810.66;4954497;29;20066;-75
2021/12/24 07:27:51;;;;;;;3.20;2.42;;;;;;;7.73;72.73;95818.44;4954113;29;20051;-76
2021/12/24 07:30:20;;;;;;;2.17;1.98;;;;;;;7.73;72.54;95808.84;4989398;23;20055;-77
2021/12/24 07:32:47;;;;;;;5.97;2.42;;;;;;;7.73;72.87;95803.66;4976569;28;20043;-81
2021/12/24 07:35:15;;;;;;;4.15;3.08;;;;;;;7.74;72.77;95804.47;4976031;28;20051;-80
2021/12/24 07:37:43;;;;;;;3.42;2.60;;;;;;;7.72;72.93;95807.25;4975819;28;20050;-78
2021/12/24 07:40:14;;;;;;;3.38;2.50;;;;;;;7.71;73.12;95805.63;4961885;28;20532;-76
2021/12/24 07:42:42;;;;;;;2.97;2.55;;;;;;;7.72;73.09;95816.81;4957209;28;20058;-77
2021/12/24 07:45:12;;;;;;;3.45;2.78;;;;;;;7.73;73.29;95813.25;4957204;28;20058;-78
2021/12/24 07:47:42;;;;;;;4.30;2.95;;;;;;;7.72;73.14;95812.47;4957167;29;20094;-78
2021/12/24 07:51:57;;;;;;;3.28;2.55;;;;;;;7.75;72.98;95819.88;4957318;28;20055;-77
2021/12/24 07:53:07;;;;;;;3.22;2.80;;;;;;;7.76;73.13;95821.50;4957287;29;20047;-79
2021/12/24 07:55:36;;;;;;;5.70;3.05;;;;;;;7.76;73.57;95816.31;4956363;29;20048;-85
2021/12/24 07:58:04;;;;;;;2.70;2.50;;;;;;;7.74;73.64;95807.88;4956023;29;20062;-79
2021/12/24 08:00:34;;;;;;;3.80;2.85;;;;;;;7.75;73.50;95816.47;4956255;28;20051;-78
2021/12/24 08:03:03;;;;;;;5.30;3.17;;;;;;;7.75;73.40;95817.28;4959900;29;20457;-76
2021/12/24 08:05:33;;;;;;;2.72;2.33;;;;;;;7.80;73.32;95820.09;4959422;28;20078;-80
2021/12/24 08:08:07;;;;;;;5.72;2.85;;;;;;;7.82;73.29;95810.34;4960674;29;20055;-92
2021/12/24 08:10:35;;;;;;;3.13;2.80;;;;;;;7.82;73.22;95802.56;4958657;28;20055;-77
2021/12/24 08:13:04;;;;;;;2.67;2.47;;;;;;;7.82;73.41;95814.75;4959619;29;20051;-77
2021/12/24 08:15:32;;;;;;;3.20;2.90;;;;;;;7.81;73.31;95818.34;4958970;29;20060;-76
2021/12/24 08:18:00;;;;;;;3.17;2.60;;;;;;;7.81;73.46;95819.13;4959749;29;20051;-78
2021/12/24 08:20:28;;;;;;;4.22;2.63;;;;;;;7.83;73.53;95816.38;4960833;28;20066;-80
2021/12/24 08:22:56;;;;;;;5.63;2.70;;;;;;;7.82;73.64;95812.94;4959369;29;20047;-77
2021/12/24 08:25:25;;;;;;;4.03;3.10;;;;;;;7.80;73.50;95809.72;4961123;28;20062;-82
2021/12/24 08:27:54;;;;;;;2.80;2.38;;;;;;;7.81;73.45;95805.34;4944782;29;20052;-78
2021/12/24 08:30:22;;;;;;;2.58;2.35;;;;;;;7.82;73.20;95807.75;4942683;29;20079;-81
2021/12/24 08:32:49;;;;;;;6.15;2.72;;;;;;;7.84;73.43;95795.38;4944432;29;20047;-80
2021/12/24 08:35:21;;;;;;;2.58;2.35;;;;;;;7.87;73.25;95798.63;4943942;29;20474;-79
2021/12/24 08:37:50;;;;;;;2.60;2.40;;;;;;;7.84;73.60;95800.59;4943528;29;20054;-80
2021/12/24 08:40:17;;;;;;;3.25;2.58;;;;;;;7.83;73.61;95798.19;4942568;29;20470;-81
2021/12/24 08:42:45;;;;;;;3.58;2.55;;;;;;;7.81;73.45;95795.78;4944043;29;20070;-80
2021/12/24 08:45:13;;;;;;;3.60;2.60;;;;;;;7.81;73.26;95794.97;4943654;29;20047;-80
2021/12/24 08:47:42;;;;;;;4.03;2.70;;;;;;;7.83;73.41;95803.38;4942818;29;20059;-81
2021/12/24 08:50:12;;;;;;;4.38;2.85;;;;;;;7.83;73.21;95804.19;4943632;29;20059;-79
2021/12/24 08:52:44;;;;;;;3.80;2.55;;;;;;;7.84;73.46;95810.97;4943785;29;20043;-78
2021/12/24 08:55:12;;;;;;;2.92;2.63;;;;;;;7.84;73.35;95800.59;4944230;29;20056;-78
2021/12/24 08:57:41;;;;;;;4.05;2.72;;;;;;;7.87;73.26;95799.44;4943005;29;20417;-78
2021/12/24 09:00:12;;;;;;;4.07;2.70;;;;;;;7.88;73.43;95797.63;4943171;29;20052;-79
2021/12/24 09:02:40;;;;;;;3.05;2.30;;;;;;;7.90;73.32;95808.66;4944089;29;20067;-78
2021/12/24 09:05:10;;;;;;;3.22;2.30;;;;;;;7.91;73.30;95810.25;4944598;29;20421;-80
2021/12/24 09:07:38;;;;;;;2.80;2.58;;;;;;;7.90;73.45;95809.44;4943301;29;20180;-80
2021/12/24 09:10:08;;;;;;;3.58;3.03;;;;;;;7.89;73.61;95818.22;4944219;29;20055;-81
2021/12/24 09:12:36;;;;;;;4.38;2.58;;;;;;;7.90;73.82;95813.84;4943584;29;20060;-81
2021/12/24 09:15:05;;;;;;;4.32;2.90;;;;;;;7.92;73.79;95798.88;4944034;29;20048;-79
2021/12/24 09:17:33;;;;;;;2.60;2.17;;;;;;;7.92;73.78;95806.66;4943619;29;20395;-79
2021/12/24 09:20:00;;;;;;;2.92;2.50;;;;;;;7.93;73.94;95800.47;4943232;29;20059;-78
2021/12/24 09:22:32;;;;;;;3.05;2.30;;;;;;;7.95;73.84;95803.69;4944042;29;20063;-81
2021/12/24 09:25:00;;;;;;;3.22;2.92;;;;;;;7.96;73.78;95797.50;4944372;29;20506;-84
2021/12/24 09:27:28;;;;;;;5.40;4.00;;;;;;;7.96;73.42;95797.50;4943966;29;20055;-80
2021/12/24 09:29:56;;;;;;;2.92;2.50;;;;;;;7.98;73.14;95800.72;4943745;29;20055;-81
2021/12/24 09:32:25;;;;;;;4.00;2.33;;;;;;;7.99;73.43;95800.53;4943517;29;20067;-80
2021/12/24 09:34:53;;;;;;;5.38;2.72;;;;;;;7.99;73.55;95797.16;4943262;29;20095;-82
2021/12/24 09:37:21;;;;;;;3.25;2.78;;;;;;;7.98;73.51;95798.13;4942945;29;20063;-80
2021/12/24 09:39:48;;;;;;;3.20;2.53;;;;;;;7.96;73.72;95800.09;4943016;29;20048;-78
2021/12/24 09:42:16;;;;;;;3.47;2.60;;;;;;;7.95;73.68;95790.72;4942421;29;20052;-80
2021/12/24 09:44:45;;;;;;;3.70;2.70;;;;;;;7.97;73.51;95804.31;4942541;29;20055;-79
2021/12/24 09:47:12;;;;;;;2.78;2.17;;;;;;;7.98;73.26;95801.53;4942400;29;20052;-78
2021/12/24 09:49:40;;;;;;;3.20;2.90;;;;;;;8.00;73.56;95798.75;4942279;29;20422;-78
2021/12/24 09:52:08;;;;;;;3.97;3.40;;;;;;;7.98;73.61;95801.53;4942377;29;20052;-78
2021/12/24 09:54:36;;;;;;;3.08;2.58;;;;;;;7.97;73.57;95799.13;4941718;29;20058;-79
2021/12/24 09:57:04;;;;;;;2.72;2.13;;;;;;;7.97;73.56;95793.94;4941850;29;20059;-77
2021/12/24 09:59:31;;;;;;;3.63;3.00;;;;;;;7.98;73.30;95792.94;4941994;29;20062;-79
2021/12/24 10:02:02;;;;;;;3.83;2.45;;;;;;;7.99;74.04;95784.16;4939811;29;20481;-80
2021/12/24 10:04:31;;;;;;;4.00;2.83;;;;;;;8.00;73.77;95789.19;4939462;29;20103;-78
2021/12/24 10:07:00;;;;;;;3.38;2.28;;;;;;;8.02;73.59;95788.97;4939353;29;20429;-77
2021/12/24 10:09:32;;;;;;;3.05;2.60;;;;;;;8.01;73.88;95782.97;4940926;29;20048;-79
2021/12/24 10:12:02;;;;;;;3.50;2.20;;;;;;;8.02;73.80;95787.19;4940012;29;20522;-76
2021/12/24 10:14:36;;;;;;;2.92;2.65;;;;;;;8.00;73.83;95783.16;4938941;29;20054;-76
2021/12/24 10:17:13;;;;;;;4.32;3.00;;;;;;;8.00;74.14;95790.94;4938990;29;20058;-76
2021/12/24 10:19:45;;;;;;;5.47;3.30;;;;;;;8.00;73.99;95785.75;4938957;29;20043;-80
2021/12/24 10:22:13;;;;;;;2.92;2.53;;;;;;;8.00;74.00;95786.59;4938790;29;20063;-79
2021/12/24 10:24:41;;;;;;;3.05;2.70;;;;;;;7.98;74.51;95779.94;4938058;29;20043;-77
2021/12/24 10:27:11;;;;;;;4.07;3.03;;;;;;;7.96;74.38;95772.34;4939310;29;20062;-77
2021/12/24 10:29:41;;;;;;;3.22;2.65;;;;;;;7.97;74.68;95773.16;4943101;29;20062;-78
2021/12/24 10:32:14;;;;;;;3.05;2.50;;;;;;;7.96;75.22;95763.75;4940096;29;20111;-80
2021/12/24 10:34:42;;;;;;;;;;;;;;;7.97;75.29;95760.16;4943153;29;20051;-81
2021/12/24 10:37:13;;;;;;;3.47;2.60;;;;;;;7.96;74.83;95758.53;4943220;29;19922;-80
2021/12/24 10:39:44;;;;;;;3.95;3.00;;;;;;;7.95;75.62;95769.94;4943758;29;20063;-79
2021/12/24 10:42:22;;;;;;;3.28;2.75;;;;;;;7.95;75.47;95759.56;4943936;29;20063;-79
2021/12/24 10:44:52;;;;;;;6.90;3.03;;;;;;;7.95;75.45;95759.56;4942356;29;20418;-79
2021/12/24 10:47:25;;;;;;;3.03;2.72;;;;;;;7.93;75.92;95771.91;4943008;29;20094;-80
2021/12/24 10:50:05;;;;;;;4.03;2.60;;;;;;;7.92;75.68;95780.69;4939979;29;20056;-78
2021/12/24 10:55:38;;;;;;;2.97;2.67;;;;;;;7.91;76.44;95768.69;4940580;29;20128;-82
2021/12/24 10:58:14;;;;;;;3.33;3.03;;;;;;;7.91;76.85;95773.88;4938887;29;20114;-79
2021/12/24 11:00:46;;;;;;;5.20;3.33;;;;;;;7.89;76.79;95766.28;4939773;29;20051;-77
2021/12/24 11:03:19;;;;;;;3.42;2.70;;;;;;;7.87;77.30;95768.28;4939806;29;20090;-77
2021/12/24 11:05:51;;;;;;;4.35;3.05;;;;;;;7.86;77.24;95750.28;4941812;29;20074;-80
2021/12/24 11:08:21;;;;;;;4.90;3.38;;;;;;;7.84;77.45;95745.25;4942783;29;20062;-78
2021/12/24 11:10:50;;;;;;;3.92;3.53;;;;;;;7.86;77.49;95745.09;4941653;29;20048;-78
2021/12/24 11:13:20;;;;;;;4.18;3.47;;;;;;;7.84;77.83;95738.28;4940099;29;20127;-77
2021/12/24 11:15:49;;;;;;;5.75;3.67;;;;;;;7.82;77.92;95737.66;4939723;29;20074;-78
2021/12/24 11:18:20;;;;;;;4.22;2.90;;;;;;;7.83;78.16;95735.88;4938655;29;20051;-76
2021/12/24 11:20:52;;;;;;;6.90;3.75;;;;;;;7.84;78.70;95732.28;4938144;29;20067;-77
2021/12/24 11:23:22;;;;;;;5.10;3.33;;;;;;;7.84;78.09;95722.69;4938370;29;20056;-81
2021/12/24 11:25:52;;;;;;;3.80;3.38;;;;;;;7.86;78.35;95727.72;4939414;29;20059;-81
2021/12/24 11:28:20;;;;;;;4.32;3.40;;;;;;;7.86;78.31;95725.09;4940444;29;20056;-76
2021/12/24 11:30:49;;;;;;;4.10;3.20;;;;;;;7.85;78.45;95728.72;4940212;29;20048;-78
2021/12/24 11:33:21;;;;;;;3.92;2.80;;;;;;;7.86;78.80;95726.91;4939928;29;20054;-78
2021/12/24 11:35:51;;;;;;;5.68;3.08;;;;;;;7.86;78.90;95732.09;4940715;29;20048;-78
2021/12/24 11:38:21;;;;;;;8.23;4.13;;;;;;;7.85;78.75;95718.31;4938983;29;20052;-79
2021/12/24 11:40:51;;;;;;;3.80;3.38;;;;;;;7.84;78.81;95722.69;4940553;29;20044;-82
2021/12/24 11:43:20;;;;;;;3.25;2.90;;;;;;;7.84;78.87;95722.69;4943575;29;20055;-80
2021/12/24 11:45:48;;;;;;;3.47;3.00;;;;;;;7.83;78.75;95718.50;4939160;29;20054;-80
2021/12/24 11:48:16;;;;;;;2.72;2.50;;;;;;;7.83;79.20;95718.50;4939148;29;20119;-77
2021/12/24 11:50:45;;;;;;;2.80;2.10;;;;;;;7.83;79.67;95715.91;4939375;29;20054;-80
2021/12/24 11:53:17;;;;;;;5.05;2.70;;;;;;;7.85;79.62;95710.53;4940956;29;20054;-81
2021/12/24 11:55:48;;;;;;;2.63;2.22;;;;;;;7.86;79.52;95713.94;4939904;29;20048;-77
2021/12/24 11:58:18;;;;;;;2.95;2.60;;;;;;;7.86;79.49;95719.13;4938164;29;20051;-80
2021/12/24 12:00:48;;;;;;;5.00;2.45;;;;;;;7.88;79.57;95724.94;4938757;29;20407;-78
2021/12/24 12:03:32;;;;;;;2.90;2.60;;;;;;;7.85;80.06;95718.31;4938259;29;20066;-78
2021/12/24 12:06:02;;;;;;;3.63;2.35;;;;;;;7.82;79.63;95711.69;4938117;29;20051;-78
2021/12/24 12:08:33;;;;;;;2.75;2.03;;;;;;;7.81;79.87;95707.50;4939830;29;20071;-81
2021/12/24 12:11:04;;;;;;;2.53;2.10;;;;;;;7.82;79.81;95698.69;4938100;29;20438;-78
2021/12/24 12:13:43;;;;;;;2.72;2.10;;;;;;;7.84;80.51;95691.53;4937512;29;20048;-79
2021/12/24 12:16:13;;;;;;;2.45;2.15;;;;;;;7.86;79.86;95695.75;4938537;29;20411;-79
2021/12/24 12:18:47;;;;;;;3.47;2.17;;;;;;;7.85;80.25;95692.34;4936973;29;20577;-77
2021/12/24 12:21:22;;;;;;;2.47;2.13;;;;;;;7.88;80.19;95697.16;4938592;29;20063;-77
2021/12/24 12:24:57;;;;;;;2.70;2.38;;;;;;;7.88;80.03;95684.19;4938591;29;20054;-79
2021/12/24 12:26:45;;;;;;;2.60;1.88;;;;;;;7.91;80.18;95685.59;4936256;29;20056;-77
2021/12/24 12:29:21;;;;;;;2.17;1.98;;;;;;;7.92;80.31;95677.63;4938652;29;20205;-78
2021/12/24 12:31:52;;;;;;;2.72;1.92;;;;;;;7.93;80.03;95670.63;4936738;29;20421;-78
2021/12/24 12:34:48;;;;;;;3.05;2.67;;;;;;;7.94;80.51;95665.25;4937111;29;20051;-79
2021/12/24 12:37:20;;;;;;;3.00;1.67;;;;;;;7.95;80.11;95666.84;4937906;29;20052;-77
2021/12/24 12:39:50;;;;;;;2.58;2.30;;;;;;;7.95;80.05;95658.28;4938333;29;20192;-79
2021/12/24 12:42:23;;;;;;;2.30;2.08;;;;;;;7.98;80.31;95660.47;4938356;29;20060;-77
2021/12/24 12:44:53;;;;;;;;;;;;;;;8.00;80.81;95661.91;4940802;29;20048;-79
2021/12/24 12:47:23;;;;;;;2.10;1.85;;;;;;;8.01;79.99;95660.13;4942704;29;20403;-80
2021/12/24 12:50:11;;;;;;;2.53;1.90;;;;;;;8.01;80.09;95662.72;4944941;29;20425;-83
2021/12/24 12:52:41;;;;;;;2.15;1.95;;;;;;;8.03;80.44;95658.13;4944094;29;20052;-80
2021/12/24 12:55:28;;;;;;;1.98;1.77;;;;;;;8.04;80.90;95665.72;4944540;29;20425;-78
2021/12/24 12:58:20;;;;;;;2.40;1.75;;;;;;;8.06;80.80;95662.94;4942188;29;20051;-79
2021/12/24 13:01:03;;;;;;;1.70;1.60;;;;;;;8.07;80.63;95663.75;4941343;29;20067;-78
2021/12/24 13:03:31;;;;;;;2.17;1.98;;;;;;;8.05;80.50;95650.97;4941174;29;20052;-80
2021/12/24 13:06:08;;;;;;;1.70;1.60;;;;;;;8.04;80.74;95655.34;4940541;29;20430;-79
2021/12/24 13:08:40;;;;;;;2.40;1.50;;;;;;;8.04;80.54;95647.53;4940513;29;20056;-80
2021/12/24 13:11:11;;;;;;;3.60;2.00;;;;;;;8.04;80.40;95652.72;4941101;29;20060;-81
2021/12/24 13:13:53;;;;;;;1.80;1.45;;;;;;;8.05;80.33;95653.56;4943497;29;20059;-80
2021/12/24 13:16:28;;;;;;;1.73;1.63;;;;;;;8.07;80.41;95654.19;4942771;29;20055;-79
2021/12/24 13:19:00;;;;;;;2.50;1.70;;;;;;;8.07;80.57;95643.78;4942397;29;20051;-80
2021/12/24 13:24:16;;;;;;;2.33;1.63;;;;;;;8.05;80.73;95636.19;4940291;29;20483;-78
2021/12/24 13:26:48;;;;;;;1.50;1.40;;;;;;;8.05;80.48;95636.19;4941985;29;20054;-82
2021/12/24 13:29:17;;;;;;;2.38;1.48;;;;;;;8.06;80.34;95636.97;4966434;23;20351;-78
2021/12/24 13:31:53;;;;;;;1.48;1.38;;;;;;;8.06;80.56;95631.78;4976108;28;20077;-78
2021/12/24 13:34:22;;;;;;;2.03;1.60;;;;;;;8.06;80.43;95636.97;4975946;28;20057;-78
2021/12/24 13:36:50;;;;;;;2.85;1.80;;;;;;;8.05;80.51;95635.38;4975371;28;20066;-78
2021/12/24 13:39:22;;;;;;;2.10;1.38;;;;;;;8.05;80.43;95632.78;4972258;28;20050;-78
2021/12/24 13:42:00;;;;;;;;;;;;;;;8.07;80.63;95633.41;4956857;29;20043;-78
2021/12/24 13:44:29;;;;;;;2.53;1.60;;;;;;;8.06;80.12;95631.78;4956185;29;19922;-78
2021/12/24 13:47:03;;;;;;;6.82;2.55;;;;;;;8.05;80.29;95635.38;4955789;28;20047;-78
2021/12/24 13:55:16;;;;;;;1.42;1.33;;;;;;;8.03;80.85;95642.56;4956185;29;20054;-78
2021/12/24 13:57:51;;;;;;;5.82;1.45;;;;;;;8.03;80.70;95645.16;4955621;28;20613;-78
2021/12/24 14:00:19;;;;;;;1.35;1.23;;;;;;;8.02;80.50;95638.34;4955900;28;20399;-78
2021/12/24 14:02:51;;;;;;;1.98;1.48;;;;;;;8.02;80.66;95646.13;4956004;28;20051;-78
2021/12/24 14:05:20;;;;;;;2.40;1.60;;;;;;;7.99;80.78;95644.72;4956190;28;20055;-78
2021/12/24 14:08:04;;;;;;;2.63;1.48;;;;;;;8.01;81.12;95639.34;4955704;29;20505;-78
2021/12/24 14:10:33;;;;;;;2.10;1.80;;;;;;;8.00;81.07;95643.75;4955696;28;20054;-78